sensor_id;sensor_type;location;lat;lon;timestamp;P1;durP1;ratioP1;P2;durP2;ratioP2
26014;SDS011;13793;55.388;37.844;2022-10-12T00:01:53;71.03;;;36.93;;
26014;SDS011;13793;55.388;37.844;2022-10-12T00:04:23;70.13;;;38.30;;
26014;SDS011;13793;55.388;37.844;2022-10-12T00:06:54;67.37;;;35.93;;
26014;SDS011;13793;55.388;37.844;2022-10-12T00:09:25;68.03;;;35.90;;
26014;SDS011;13793;55.388;37.844;2022-10-12T00:11:55;63.13;;;34.90;;
26014;SDS011;13793;55.388;37.844;2022-10-12T00:14:26;71.93;;;36.20;;
26014;SDS011;13793;55.388;37.844;2022-10-12T00:16:56;71.57;;;36.23;;
26014;SDS011;13793;55.388;37.844;2022-10-12T00:19:27;64.50;;;33.40;;
26014;SDS011;13793;55.388;37.844;2022-10-12T00:21:57;62.00;;;32.47;;
26014;SDS011;13793;55.388;37.844;2022-10-12T00:24:28;64.70;;;33.23;;
26014;SDS011;13793;55.388;37.844;2022-10-12T00:26:59;65.17;;;31.00;;
26014;SDS011;13793;55.388;37.844;2022-10-12T00:29:30;59.20;;;33.67;;
26014;SDS011;13793;55.388;37.844;2022-10-12T00:32:00;61.93;;;31.83;;
26014;SDS011;13793;55.388;37.844;2022-10-12T00:34:32;57.53;;;29.37;;
26014;SDS011;13793;55.388;37.844;2022-10-12T00:37:02;57.67;;;30.53;;
26014;SDS011;13793;55.388;37.844;2022-10-12T00:39:33;59.93;;;32.13;;
26014;SDS011;13793;55.388;37.844;2022-10-12T00:42:03;57.10;;;29.40;;
26014;SDS011;13793;55.388;37.844;2022-10-12T00:44:35;55.53;;;28.50;;
26014;SDS011;13793;55.388;37.844;2022-10-12T00:47:18;62.03;;;31.07;;
26014;SDS011;13793;55.388;37.844;2022-10-12T00:49:59;59.27;;;31.30;;
26014;SDS011;13793;55.388;37.844;2022-10-12T00:52:51;55.80;;;29.47;;
26014;SDS011;13793;55.388;37.844;2022-10-12T00:55:09;53.87;;;27.83;;
26014;SDS011;13793;55.388;37.844;2022-10-12T00:57:43;55.17;;;28.23;;
26014;SDS011;13793;55.388;37.844;2022-10-12T01:00:14;57.67;;;29.13;;
26014;SDS011;13793;55.388;37.844;2022-10-12T01:02:46;61.47;;;29.87;;
26014;SDS011;13793;55.388;37.844;2022-10-12T01:05:17;52.97;;;27.07;;
26014;SDS011;13793;55.388;37.844;2022-10-12T01:07:49;49.13;;;27.57;;
26014;SDS011;13793;55.388;37.844;2022-10-12T01:10:19;51.33;;;26.33;;
26014;SDS011;13793;55.388;37.844;2022-10-12T01:12:51;48.17;;;26.80;;
26014;SDS011;13793;55.388;37.844;2022-10-12T01:15:22;45.90;;;27.37;;
26014;SDS011;13793;55.388;37.844;2022-10-12T01:18:02;50.75;;;26.33;;
26014;SDS011;13793;55.388;37.844;2022-10-12T01:32:36;87.40;;;41.10;;
26014;SDS011;13793;55.388;37.844;2022-10-12T01:35:05;73.23;;;36.27;;
26014;SDS011;13793;55.388;37.844;2022-10-12T01:40:36;102.77;;;46.53;;
26014;SDS011;13793;55.388;37.844;2022-10-12T01:43:15;117.43;;;54.17;;
26014;SDS011;13793;55.388;37.844;2022-10-12T01:45:49;110.63;;;50.17;;
26014;SDS011;13793;55.388;37.844;2022-10-12T01:48:19;83.40;;;41.83;;
26014;SDS011;13793;55.388;37.844;2022-10-12T01:50:51;75.20;;;37.97;;
26014;SDS011;13793;55.388;37.844;2022-10-12T01:56:03;70.47;;;37.20;;
26014;SDS011;13793;55.388;37.844;2022-10-12T01:58:45;66.43;;;31.67;;
26014;SDS011;13793;55.388;37.844;2022-10-12T02:04:09;54.90;;;27.17;;
26014;SDS011;13793;55.388;37.844;2022-10-12T02:06:57;47.00;;;26.37;;
26014;SDS011;13793;55.388;37.844;2022-10-12T02:09:30;49.00;;;25.53;;
26014;SDS011;13793;55.388;37.844;2022-10-12T02:11:59;39.13;;;23.87;;
26014;SDS011;13793;55.388;37.844;2022-10-12T02:14:37;38.67;;;22.97;;
26014;SDS011;13793;55.388;37.844;2022-10-12T02:17:14;49.67;;;24.80;;
26014;SDS011;13793;55.388;37.844;2022-10-12T02:19:55;44.90;;;24.27;;
26014;SDS011;13793;55.388;37.844;2022-10-12T02:22:24;48.25;;;24.43;;
26014;SDS011;13793;55.388;37.844;2022-10-12T02:25:04;45.67;;;24.17;;
26014;SDS011;13793;55.388;37.844;2022-10-12T02:27:41;46.67;;;24.63;;
26014;SDS011;13793;55.388;37.844;2022-10-12T02:30:11;43.90;;;23.70;;
26014;SDS011;13793;55.388;37.844;2022-10-12T02:32:49;50.60;;;25.03;;
26014;SDS011;13793;55.388;37.844;2022-10-12T02:35:34;74.13;;;34.83;;
26014;SDS011;13793;55.388;37.844;2022-10-12T02:38:19;53.20;;;27.20;;
26014;SDS011;13793;55.388;37.844;2022-10-12T02:40:57;57.07;;;28.70;;
26014;SDS011;13793;55.388;37.844;2022-10-12T02:43:37;53.93;;;27.57;;
26014;SDS011;13793;55.388;37.844;2022-10-12T02:46:09;46.13;;;25.03;;
26014;SDS011;13793;55.388;37.844;2022-10-12T02:48:40;46.27;;;23.80;;
26014;SDS011;13793;55.388;37.844;2022-10-12T02:51:10;41.50;;;23.53;;
26014;SDS011;13793;55.388;37.844;2022-10-12T02:53:41;44.07;;;23.73;;
26014;SDS011;13793;55.388;37.844;2022-10-12T02:56:13;42.27;;;23.53;;
26014;SDS011;13793;55.388;37.844;2022-10-12T02:58:44;44.20;;;24.20;;
26014;SDS011;13793;55.388;37.844;2022-10-12T03:01:15;46.00;;;24.07;;
26014;SDS011;13793;55.388;37.844;2022-10-12T03:03:45;46.00;;;24.40;;
26014;SDS011;13793;55.388;37.844;2022-10-12T03:06:16;40.40;;;23.80;;
26014;SDS011;13793;55.388;37.844;2022-10-12T03:08:47;47.47;;;24.60;;
26014;SDS011;13793;55.388;37.844;2022-10-12T03:11:18;50.83;;;24.53;;
26014;SDS011;13793;55.388;37.844;2022-10-12T03:13:53;50.10;;;24.17;;
26014;SDS011;13793;55.388;37.844;2022-10-12T03:16:20;41.17;;;23.13;;
26014;SDS011;13793;55.388;37.844;2022-10-12T03:18:51;44.63;;;24.33;;
26014;SDS011;13793;55.388;37.844;2022-10-12T03:21:22;44.83;;;24.13;;
26014;SDS011;13793;55.388;37.844;2022-10-12T03:23:53;42.00;;;23.10;;
26014;SDS011;13793;55.388;37.844;2022-10-12T03:26:23;38.87;;;22.47;;
26014;SDS011;13793;55.388;37.844;2022-10-12T03:28:54;41.67;;;22.80;;
26014;SDS011;13793;55.388;37.844;2022-10-12T03:31:25;40.17;;;21.73;;
26014;SDS011;13793;55.388;37.844;2022-10-12T03:33:55;42.37;;;22.97;;
26014;SDS011;13793;55.388;37.844;2022-10-12T03:36:26;47.83;;;23.90;;
26014;SDS011;13793;55.388;37.844;2022-10-12T03:38:56;41.33;;;23.23;;
26014;SDS011;13793;55.388;37.844;2022-10-12T03:41:27;40.87;;;23.93;;
26014;SDS011;13793;55.388;37.844;2022-10-12T03:43:57;45.13;;;24.97;;
26014;SDS011;13793;55.388;37.844;2022-10-12T03:46:28;43.70;;;24.33;;
26014;SDS011;13793;55.388;37.844;2022-10-12T03:48:59;41.63;;;24.70;;
26014;SDS011;13793;55.388;37.844;2022-10-12T03:51:30;41.63;;;23.53;;
26014;SDS011;13793;55.388;37.844;2022-10-12T03:54:01;46.13;;;23.57;;
26014;SDS011;13793;55.388;37.844;2022-10-12T03:56:31;45.80;;;24.97;;
26014;SDS011;13793;55.388;37.844;2022-10-12T03:59:02;41.10;;;23.67;;
26014;SDS011;13793;55.388;37.844;2022-10-12T04:01:32;39.37;;;23.57;;
26014;SDS011;13793;55.388;37.844;2022-10-12T04:04:03;50.70;;;24.60;;
26014;SDS011;13793;55.388;37.844;2022-10-12T04:06:34;42.67;;;24.53;;
26014;SDS011;13793;55.388;37.844;2022-10-12T04:09:04;47.03;;;24.67;;
26014;SDS011;13793;55.388;37.844;2022-10-12T04:11:35;48.13;;;25.97;;
26014;SDS011;13793;55.388;37.844;2022-10-12T04:14:05;45.13;;;25.37;;
26014;SDS011;13793;55.388;37.844;2022-10-12T04:16:36;44.00;;;25.83;;
26014;SDS011;13793;55.388;37.844;2022-10-12T04:19:09;43.50;;;25.47;;
26014;SDS011;13793;55.388;37.844;2022-10-12T04:21:40;45.10;;;26.53;;
26014;SDS011;13793;55.388;37.844;2022-10-12T04:24:11;45.07;;;26.47;;
26014;SDS011;13793;55.388;37.844;2022-10-12T04:26:42;48.73;;;27.57;;
26014;SDS011;13793;55.388;37.844;2022-10-12T04:29:12;48.70;;;27.03;;
26014;SDS011;13793;55.388;37.844;2022-10-12T04:31:44;42.77;;;26.20;;
26014;SDS011;13793;55.388;37.844;2022-10-12T04:34:17;51.93;;;26.50;;
26014;SDS011;13793;55.388;37.844;2022-10-12T04:36:48;48.20;;;27.37;;
26014;SDS011;13793;55.388;37.844;2022-10-12T04:39:18;45.33;;;25.57;;
26014;SDS011;13793;55.388;37.844;2022-10-12T04:41:49;43.50;;;27.27;;
26014;SDS011;13793;55.388;37.844;2022-10-12T04:44:20;46.13;;;25.73;;
26014;SDS011;13793;55.388;37.844;2022-10-12T04:46:51;40.00;;;25.47;;
26014;SDS011;13793;55.388;37.844;2022-10-12T04:49:22;41.83;;;25.43;;
26014;SDS011;13793;55.388;37.844;2022-10-12T04:51:52;36.33;;;23.70;;
26014;SDS011;13793;55.388;37.844;2022-10-12T04:54:26;41.00;;;24.10;;
26014;SDS011;13793;55.388;37.844;2022-10-12T04:56:57;45.07;;;25.80;;
26014;SDS011;13793;55.388;37.844;2022-10-12T04:59:28;40.10;;;23.97;;
26014;SDS011;13793;55.388;37.844;2022-10-12T05:01:58;42.73;;;24.77;;
26014;SDS011;13793;55.388;37.844;2022-10-12T05:04:29;38.63;;;23.87;;
26014;SDS011;13793;55.388;37.844;2022-10-12T05:06:59;44.30;;;23.47;;
26014;SDS011;13793;55.388;37.844;2022-10-12T05:09:30;41.43;;;25.37;;
26014;SDS011;13793;55.388;37.844;2022-10-12T05:12:04;52.23;;;29.43;;
26014;SDS011;13793;55.388;37.844;2022-10-12T05:14:35;53.23;;;29.20;;
26014;SDS011;13793;55.388;37.844;2022-10-12T05:17:09;153.10;;;57.43;;
26014;SDS011;13793;55.388;37.844;2022-10-12T05:19:40;256.37;;;99.23;;
26014;SDS011;13793;55.388;37.844;2022-10-12T05:22:10;127.13;;;55.33;;
26014;SDS011;13793;55.388;37.844;2022-10-12T05:24:43;144.70;;;60.70;;
26014;SDS011;13793;55.388;37.844;2022-10-12T05:27:14;133.43;;;57.73;;
26014;SDS011;13793;55.388;37.844;2022-10-12T05:29:45;77.77;;;37.47;;
26014;SDS011;13793;55.388;37.844;2022-10-12T05:32:16;62.57;;;30.30;;
26014;SDS011;13793;55.388;37.844;2022-10-12T05:34:46;48.93;;;25.27;;
26014;SDS011;13793;55.388;37.844;2022-10-12T05:37:18;54.90;;;26.97;;
26014;SDS011;13793;55.388;37.844;2022-10-12T05:39:48;55.30;;;27.33;;
26014;SDS011;13793;55.388;37.844;2022-10-12T05:42:19;45.40;;;25.07;;
26014;SDS011;13793;55.388;37.844;2022-10-12T05:44:50;88.20;;;38.57;;
26014;SDS011;13793;55.388;37.844;2022-10-12T05:47:20;67.80;;;31.00;;
26014;SDS011;13793;55.388;37.844;2022-10-12T05:49:51;57.23;;;28.17;;
26014;SDS011;13793;55.388;37.844;2022-10-12T05:52:22;62.50;;;28.27;;
26014;SDS011;13793;55.388;37.844;2022-10-12T05:54:52;49.57;;;22.60;;
26014;SDS011;13793;55.388;37.844;2022-10-12T05:57:23;34.43;;;19.10;;
26014;SDS011;13793;55.388;37.844;2022-10-12T05:59:53;33.13;;;18.27;;
26014;SDS011;13793;55.388;37.844;2022-10-12T06:02:24;30.07;;;18.03;;
26014;SDS011;13793;55.388;37.844;2022-10-12T06:04:58;29.50;;;16.63;;
26014;SDS011;13793;55.388;37.844;2022-10-12T06:07:29;28.83;;;16.37;;
26014;SDS011;13793;55.388;37.844;2022-10-12T06:09:59;26.30;;;15.30;;
26014;SDS011;13793;55.388;37.844;2022-10-12T06:12:30;19.23;;;13.17;;
26014;SDS011;13793;55.388;37.844;2022-10-12T06:15:01;20.80;;;13.17;;
26014;SDS011;13793;55.388;37.844;2022-10-12T06:17:32;19.00;;;12.93;;
26014;SDS011;13793;55.388;37.844;2022-10-12T06:20:02;19.97;;;12.30;;
26014;SDS011;13793;55.388;37.844;2022-10-12T06:22:33;21.90;;;12.77;;
26014;SDS011;13793;55.388;37.844;2022-10-12T06:25:04;19.33;;;12.73;;
26014;SDS011;13793;55.388;37.844;2022-10-12T06:27:35;17.80;;;11.60;;
26014;SDS011;13793;55.388;37.844;2022-10-12T06:30:06;21.53;;;12.93;;
26014;SDS011;13793;55.388;37.844;2022-10-12T06:32:37;19.33;;;10.90;;
26014;SDS011;13793;55.388;37.844;2022-10-12T06:35:08;13.43;;;10.10;;
26014;SDS011;13793;55.388;37.844;2022-10-12T06:37:39;14.23;;;10.27;;
26014;SDS011;13793;55.388;37.844;2022-10-12T06:40:10;12.73;;;8.97;;
26014;SDS011;13793;55.388;37.844;2022-10-12T06:42:41;14.00;;;8.60;;
26014;SDS011;13793;55.388;37.844;2022-10-12T06:45:12;13.27;;;8.60;;
26014;SDS011;13793;55.388;37.844;2022-10-12T06:47:43;14.07;;;8.70;;
26014;SDS011;13793;55.388;37.844;2022-10-12T06:50:14;13.93;;;8.00;;
26014;SDS011;13793;55.388;37.844;2022-10-12T06:52:45;11.60;;;7.63;;
26014;SDS011;13793;55.388;37.844;2022-10-12T06:55:16;12.03;;;7.40;;
26014;SDS011;13793;55.388;37.844;2022-10-12T06:57:46;11.87;;;6.80;;
26014;SDS011;13793;55.388;37.844;2022-10-12T07:00:20;10.32;;;5.87;;
26014;SDS011;13793;55.388;37.844;2022-10-12T07:02:51;10.43;;;6.45;;
26014;SDS011;13793;55.388;37.844;2022-10-12T07:05:24;11.57;;;7.72;;
26014;SDS011;13793;55.388;37.844;2022-10-12T07:07:55;9.65;;;7.58;;
26014;SDS011;13793;55.388;37.844;2022-10-12T07:10:25;12.55;;;8.15;;
26014;SDS011;13793;55.388;37.844;2022-10-12T07:12:56;15.13;;;7.90;;
26014;SDS011;13793;55.388;37.844;2022-10-12T07:15:27;10.20;;;6.33;;
26014;SDS011;13793;55.388;37.844;2022-10-12T07:17:57;8.33;;;6.25;;
26014;SDS011;13793;55.388;37.844;2022-10-12T07:20:27;10.15;;;5.45;;
26014;SDS011;13793;55.388;37.844;2022-10-12T07:22:58;7.75;;;4.95;;
26014;SDS011;13793;55.388;37.844;2022-10-12T07:25:31;8.10;;;4.90;;
26014;SDS011;13793;55.388;37.844;2022-10-12T07:28:02;10.00;;;5.15;;
26014;SDS011;13793;55.388;37.844;2022-10-12T07:30:34;7.67;;;5.00;;
26014;SDS011;13793;55.388;37.844;2022-10-12T07:33:05;6.55;;;4.97;;
26014;SDS011;13793;55.388;37.844;2022-10-12T07:35:35;11.35;;;7.28;;
26014;SDS011;13793;55.388;37.844;2022-10-12T07:38:06;20.92;;;10.40;;
26014;SDS011;13793;55.388;37.844;2022-10-12T07:40:37;30.92;;;12.85;;
26014;SDS011;13793;55.388;37.844;2022-10-12T07:43:07;26.52;;;11.50;;
26014;SDS011;13793;55.388;37.844;2022-10-12T07:45:38;18.90;;;9.63;;
26014;SDS011;13793;55.388;37.844;2022-10-12T07:48:08;8.73;;;6.05;;
26014;SDS011;13793;55.388;37.844;2022-10-12T07:50:39;12.53;;;7.03;;
26014;SDS011;13793;55.388;37.844;2022-10-12T07:53:09;10.08;;;6.12;;
26014;SDS011;13793;55.388;37.844;2022-10-12T07:55:40;9.30;;;5.60;;
26014;SDS011;13793;55.388;37.844;2022-10-12T07:58:10;11.48;;;6.28;;
26014;SDS011;13793;55.388;37.844;2022-10-12T08:00:42;13.28;;;6.58;;
26014;SDS011;13793;55.388;37.844;2022-10-12T08:03:13;9.95;;;5.35;;
26014;SDS011;13793;55.388;37.844;2022-10-12T08:05:44;8.98;;;5.75;;
26014;SDS011;13793;55.388;37.844;2022-10-12T08:08:15;12.15;;;7.58;;
26014;SDS011;13793;55.388;37.844;2022-10-12T08:10:54;15.23;;;8.60;;
26014;SDS011;13793;55.388;37.844;2022-10-12T08:13:26;10.70;;;6.00;;
26014;SDS011;13793;55.388;37.844;2022-10-12T08:15:57;7.75;;;5.25;;
26014;SDS011;13793;55.388;37.844;2022-10-12T08:18:28;9.28;;;5.50;;
26014;SDS011;13793;55.388;37.844;2022-10-12T08:20:59;8.35;;;5.08;;
26014;SDS011;13793;55.388;37.844;2022-10-12T08:23:31;8.58;;;4.50;;
26014;SDS011;13793;55.388;37.844;2022-10-12T08:26:08;7.30;;;4.70;;
26014;SDS011;13793;55.388;37.844;2022-10-12T08:28:39;8.88;;;5.28;;
26014;SDS011;13793;55.388;37.844;2022-10-12T08:31:11;8.10;;;4.97;;
26014;SDS011;13793;55.388;37.844;2022-10-12T08:33:42;8.68;;;4.80;;
26014;SDS011;13793;55.388;37.844;2022-10-12T08:36:13;9.53;;;4.92;;
26014;SDS011;13793;55.388;37.844;2022-10-12T08:38:48;8.23;;;5.15;;
26014;SDS011;13793;55.388;37.844;2022-10-12T08:41:24;7.60;;;4.45;;
26014;SDS011;13793;55.388;37.844;2022-10-12T08:44:02;15.25;;;9.73;;
26014;SDS011;13793;55.388;37.844;2022-10-12T08:46:36;10.75;;;5.22;;
26014;SDS011;13793;55.388;37.844;2022-10-12T08:51:50;6.80;;;3.90;;
26014;SDS011;13793;55.388;37.844;2022-10-12T08:54:22;6.75;;;3.83;;
26014;SDS011;13793;55.388;37.844;2022-10-12T08:56:54;7.15;;;4.00;;
26014;SDS011;13793;55.388;37.844;2022-10-12T08:59:25;5.40;;;2.80;;
26014;SDS011;13793;55.388;37.844;2022-10-12T09:02:20;6.17;;;3.42;;
26014;SDS011;13793;55.388;37.844;2022-10-12T09:05:16;3.55;;;2.33;;
26014;SDS011;13793;55.388;37.844;2022-10-12T09:07:54;4.62;;;2.47;;
26014;SDS011;13793;55.388;37.844;2022-10-12T09:16:08;3.83;;;2.20;;
26014;SDS011;13793;55.388;37.844;2022-10-12T09:18:42;2.95;;;2.00;;
26014;SDS011;13793;55.388;37.844;2022-10-12T09:21:20;4.75;;;2.33;;
26014;SDS011;13793;55.388;37.844;2022-10-12T09:23:47;4.65;;;2.47;;
26014;SDS011;13793;55.388;37.844;2022-10-12T09:26:38;4.85;;;2.10;;
26014;SDS011;13793;55.388;37.844;2022-10-12T09:29:00;7.87;;;3.87;;
26014;SDS011;13793;55.388;37.844;2022-10-12T09:34:26;5.33;;;2.17;;
26014;SDS011;13793;55.388;37.844;2022-10-12T09:36:57;5.17;;;2.10;;
26014;SDS011;13793;55.388;37.844;2022-10-12T09:39:31;3.45;;;2.08;;
26014;SDS011;13793;55.388;37.844;2022-10-12T09:42:03;5.72;;;3.30;;
26014;SDS011;13793;55.388;37.844;2022-10-12T09:44:35;78.83;;;43.38;;
26014;SDS011;13793;55.388;37.844;2022-10-12T09:50:03;8.05;;;4.30;;
26014;SDS011;13793;55.388;37.844;2022-10-12T09:52:41;16.00;;;9.95;;
26014;SDS011;13793;55.388;37.844;2022-10-12T09:57:58;8.73;;;4.83;;
26014;SDS011;13793;55.388;37.844;2022-10-12T10:00:31;3.50;;;2.17;;
26014;SDS011;13793;55.388;37.844;2022-10-12T10:03:03;3.98;;;1.77;;
26014;SDS011;13793;55.388;37.844;2022-10-12T10:05:34;4.80;;;1.75;;
26014;SDS011;13793;55.388;37.844;2022-10-12T10:08:30;2.87;;;1.60;;
26014;SDS011;13793;55.388;37.844;2022-10-12T10:10:51;6.28;;;3.55;;
26014;SDS011;13793;55.388;37.844;2022-10-12T10:13:25;2.37;;;1.80;;
26014;SDS011;13793;55.388;37.844;2022-10-12T10:16:06;4.90;;;1.82;;
26014;SDS011;13793;55.388;37.844;2022-10-12T10:21:23;4.35;;;2.10;;
26014;SDS011;13793;55.388;37.844;2022-10-12T10:24:00;4.17;;;1.50;;
26014;SDS011;13793;55.388;37.844;2022-10-12T10:32:12;4.15;;;2.80;;
26014;SDS011;13793;55.388;37.844;2022-10-12T10:34:45;25.37;;;17.62;;
26014;SDS011;13793;55.388;37.844;2022-10-12T10:37:17;18.92;;;14.15;;
26014;SDS011;13793;55.388;37.844;2022-10-12T10:39:49;9.00;;;5.17;;
26014;SDS011;13793;55.388;37.844;2022-10-12T10:42:23;8.88;;;5.40;;
26014;SDS011;13793;55.388;37.844;2022-10-12T10:45:05;7.60;;;3.37;;
26014;SDS011;13793;55.388;37.844;2022-10-12T10:47:45;14.40;;;9.55;;
26014;SDS011;13793;55.388;37.844;2022-10-12T10:53:02;8.73;;;5.35;;
26014;SDS011;13793;55.388;37.844;2022-10-12T10:55:41;8.88;;;4.28;;
26014;SDS011;13793;55.388;37.844;2022-10-12T11:09:20;45.85;;;23.67;;
26014;SDS011;13793;55.388;37.844;2022-10-12T11:12:02;15.23;;;8.78;;
26014;SDS011;13793;55.388;37.844;2022-10-12T11:14:37;40.15;;;19.98;;
26014;SDS011;13793;55.388;37.844;2022-10-12T11:20:10;46.75;;;26.25;;
26014;SDS011;13793;55.388;37.844;2022-10-12T11:22:54;16.07;;;8.83;;
26014;SDS011;13793;55.388;37.844;2022-10-12T11:25:47;8.18;;;4.67;;
26014;SDS011;13793;55.388;37.844;2022-10-12T11:28:29;7.12;;;3.05;;
26014;SDS011;13793;55.388;37.844;2022-10-12T11:31:01;4.17;;;2.35;;
26014;SDS011;13793;55.388;37.844;2022-10-12T11:33:36;3.87;;;2.22;;
26014;SDS011;13793;55.388;37.844;2022-10-12T11:36:09;5.33;;;2.47;;
26014;SDS011;13793;55.388;37.844;2022-10-12T11:38:43;5.08;;;2.50;;
26014;SDS011;13793;55.388;37.844;2022-10-12T11:41:19;5.12;;;2.67;;
26014;SDS011;13793;55.388;37.844;2022-10-12T11:46:40;6.65;;;3.30;;
26014;SDS011;13793;55.388;37.844;2022-10-12T11:49:30;9.30;;;3.50;;
26014;SDS011;13793;55.388;37.844;2022-10-12T11:52:07;12.73;;;3.95;;
26014;SDS011;13793;55.388;37.844;2022-10-12T11:54:52;8.05;;;4.00;;
26014;SDS011;13793;55.388;37.844;2022-10-12T11:57:27;8.48;;;3.87;;
26014;SDS011;13793;55.388;37.844;2022-10-12T12:02:58;8.95;;;4.60;;
26014;SDS011;13793;55.388;37.844;2022-10-12T12:05:35;6.60;;;4.33;;
26014;SDS011;13793;55.388;37.844;2022-10-12T12:08:05;64.82;;;33.00;;
26014;SDS011;13793;55.388;37.844;2022-10-12T12:18:24;34.70;;;18.25;;
26014;SDS011;13793;55.388;37.844;2022-10-12T12:23:40;16.62;;;7.92;;
26014;SDS011;13793;55.388;37.844;2022-10-12T12:26:23;13.58;;;8.00;;
26014;SDS011;13793;55.388;37.844;2022-10-12T12:29:10;29.48;;;18.40;;
26014;SDS011;13793;55.388;37.844;2022-10-12T12:31:52;35.45;;;20.30;;
26014;SDS011;13793;55.388;37.844;2022-10-12T12:34:23;45.43;;;26.62;;
26014;SDS011;13793;55.388;37.844;2022-10-12T12:36:54;49.77;;;25.20;;
26014;SDS011;13793;55.388;37.844;2022-10-12T12:39:32;23.62;;;13.85;;
26014;SDS011;13793;55.388;37.844;2022-10-12T12:49:49;15.90;;;9.20;;
26014;SDS011;13793;55.388;37.844;2022-10-12T12:52:33;13.72;;;7.33;;
26014;SDS011;13793;55.388;37.844;2022-10-12T12:57:56;48.13;;;25.00;;
26014;SDS011;13793;55.388;37.844;2022-10-12T13:06:09;20.92;;;11.57;;
26014;SDS011;13793;55.388;37.844;2022-10-12T13:11:26;22.40;;;11.20;;
26014;SDS011;13793;55.388;37.844;2022-10-12T13:14:06;18.60;;;9.78;;
26014;SDS011;13793;55.388;37.844;2022-10-12T13:16:53;14.03;;;7.47;;
26014;SDS011;13793;55.388;37.844;2022-10-12T13:19:26;13.80;;;6.40;;
26014;SDS011;13793;55.388;37.844;2022-10-12T13:21:57;12.33;;;4.97;;
26014;SDS011;13793;55.388;37.844;2022-10-12T13:24:32;10.95;;;6.53;;
26014;SDS011;13793;55.388;37.844;2022-10-12T13:27:10;9.98;;;5.70;;
26014;SDS011;13793;55.388;37.844;2022-10-12T13:29:53;10.20;;;6.25;;
26014;SDS011;13793;55.388;37.844;2022-10-12T13:35:09;17.65;;;7.20;;
26014;SDS011;13793;55.388;37.844;2022-10-12T13:37:35;12.13;;;6.67;;
26014;SDS011;13793;55.388;37.844;2022-10-12T13:40:25;13.00;;;6.78;;
26014;SDS011;13793;55.388;37.844;2022-10-12T13:42:56;9.63;;;6.75;;
26014;SDS011;13793;55.388;37.844;2022-10-12T13:45:28;13.15;;;6.87;;
26014;SDS011;13793;55.388;37.844;2022-10-12T13:48:02;12.85;;;6.72;;
26014;SDS011;13793;55.388;37.844;2022-10-12T13:50:33;11.70;;;7.00;;
26014;SDS011;13793;55.388;37.844;2022-10-12T13:53:11;13.65;;;6.85;;
26014;SDS011;13793;55.388;37.844;2022-10-12T13:55:37;67.95;;;32.53;;
26014;SDS011;13793;55.388;37.844;2022-10-12T13:58:19;65.67;;;36.65;;
26014;SDS011;13793;55.388;37.844;2022-10-12T14:00:50;24.67;;;13.38;;
26014;SDS011;13793;55.388;37.844;2022-10-12T14:03:34;18.70;;;10.67;;
26014;SDS011;13793;55.388;37.844;2022-10-12T14:05:57;27.23;;;14.83;;
26014;SDS011;13793;55.388;37.844;2022-10-12T14:08:28;23.07;;;14.77;;
26014;SDS011;13793;55.388;37.844;2022-10-12T14:10:59;18.97;;;11.00;;
26014;SDS011;13793;55.388;37.844;2022-10-12T14:13:32;17.20;;;9.27;;
26014;SDS011;13793;55.388;37.844;2022-10-12T14:16:03;16.57;;;7.87;;
26014;SDS011;13793;55.388;37.844;2022-10-12T14:18:36;13.40;;;6.97;;
26014;SDS011;13793;55.388;37.844;2022-10-12T14:21:12;14.77;;;8.30;;
26014;SDS011;13793;55.388;37.844;2022-10-12T14:23:54;14.60;;;7.37;;
26014;SDS011;13793;55.388;37.844;2022-10-12T14:26:37;12.50;;;6.43;;
26014;SDS011;13793;55.388;37.844;2022-10-12T14:29:27;14.30;;;6.83;;
26014;SDS011;13793;55.388;37.844;2022-10-12T14:32:04;12.83;;;7.40;;
26014;SDS011;13793;55.388;37.844;2022-10-12T14:34:49;19.07;;;13.67;;
26014;SDS011;13793;55.388;37.844;2022-10-12T14:37:23;14.93;;;6.90;;
26014;SDS011;13793;55.388;37.844;2022-10-12T14:39:57;12.33;;;7.00;;
26014;SDS011;13793;55.388;37.844;2022-10-12T14:42:33;11.03;;;6.50;;
26014;SDS011;13793;55.388;37.844;2022-10-12T14:45:05;14.47;;;7.10;;
26014;SDS011;13793;55.388;37.844;2022-10-12T14:47:38;21.67;;;8.40;;
26014;SDS011;13793;55.388;37.844;2022-10-12T14:50:12;16.40;;;8.63;;
26014;SDS011;13793;55.388;37.844;2022-10-12T14:52:46;20.57;;;11.90;;
26014;SDS011;13793;55.388;37.844;2022-10-12T14:55:19;16.27;;;8.20;;
26014;SDS011;13793;55.388;37.844;2022-10-12T14:57:51;12.00;;;7.40;;
26014;SDS011;13793;55.388;37.844;2022-10-12T15:00:34;13.20;;;7.37;;
26014;SDS011;13793;55.388;37.844;2022-10-12T15:03:00;11.60;;;6.90;;
26014;SDS011;13793;55.388;37.844;2022-10-12T15:05:31;10.07;;;6.40;;
26014;SDS011;13793;55.388;37.844;2022-10-12T15:08:02;13.07;;;8.13;;
26014;SDS011;13793;55.388;37.844;2022-10-12T15:10:35;14.93;;;9.90;;
26014;SDS011;13793;55.388;37.844;2022-10-12T15:13:06;13.20;;;7.73;;
26014;SDS011;13793;55.388;37.844;2022-10-12T15:15:41;12.53;;;7.40;;
26014;SDS011;13793;55.388;37.844;2022-10-12T15:18:17;9.90;;;7.60;;
26014;SDS011;13793;55.388;37.844;2022-10-12T15:20:47;15.03;;;8.27;;
26014;SDS011;13793;55.388;37.844;2022-10-12T15:23:18;18.07;;;10.60;;
26014;SDS011;13793;55.388;37.844;2022-10-12T15:28:24;17.40;;;9.30;;
26014;SDS011;13793;55.388;37.844;2022-10-12T15:30:57;16.63;;;8.87;;
26014;SDS011;13793;55.388;37.844;2022-10-12T15:33:30;15.10;;;9.23;;
26014;SDS011;13793;55.388;37.844;2022-10-12T15:36:01;15.83;;;8.93;;
26014;SDS011;13793;55.388;37.844;2022-10-12T15:38:32;15.87;;;8.67;;
26014;SDS011;13793;55.388;37.844;2022-10-12T15:41:03;14.33;;;9.03;;
26014;SDS011;13793;55.388;37.844;2022-10-12T15:43:34;14.47;;;8.13;;
26014;SDS011;13793;55.388;37.844;2022-10-12T15:46:04;15.60;;;9.70;;
26014;SDS011;13793;55.388;37.844;2022-10-12T15:48:38;15.20;;;8.90;;
26014;SDS011;13793;55.388;37.844;2022-10-12T15:51:14;15.87;;;8.40;;
26014;SDS011;13793;55.388;37.844;2022-10-12T15:53:45;13.20;;;8.70;;
26014;SDS011;13793;55.388;37.844;2022-10-12T15:56:16;15.90;;;9.37;;
26014;SDS011;13793;55.388;37.844;2022-10-12T15:58:47;15.33;;;10.70;;
26014;SDS011;13793;55.388;37.844;2022-10-12T16:01:18;17.70;;;10.87;;
26014;SDS011;13793;55.388;37.844;2022-10-12T16:03:49;15.27;;;10.73;;
26014;SDS011;13793;55.388;37.844;2022-10-12T16:06:20;18.57;;;12.10;;
26014;SDS011;13793;55.388;37.844;2022-10-12T16:08:51;21.20;;;12.73;;
26014;SDS011;13793;55.388;37.844;2022-10-12T16:11:26;20.73;;;14.80;;
26014;SDS011;13793;55.388;37.844;2022-10-12T16:14:00;21.87;;;13.37;;
26014;SDS011;13793;55.388;37.844;2022-10-12T16:16:31;19.53;;;13.07;;
26014;SDS011;13793;55.388;37.844;2022-10-12T16:19:01;24.10;;;15.47;;
26014;SDS011;13793;55.388;37.844;2022-10-12T16:21:32;31.33;;;17.50;;
26014;SDS011;13793;55.388;37.844;2022-10-12T16:24:02;39.73;;;21.10;;
26014;SDS011;13793;55.388;37.844;2022-10-12T16:26:34;40.13;;;21.17;;
26014;SDS011;13793;55.388;37.844;2022-10-12T16:29:04;32.07;;;17.77;;
26014;SDS011;13793;55.388;37.844;2022-10-12T16:31:35;33.10;;;18.70;;
26014;SDS011;13793;55.388;37.844;2022-10-12T16:34:06;29.67;;;16.63;;